Time;durP1;ratioP1;P1;durP2;ratioP2;P2;SDS_P1;SDS_P2;PMS_P1;PMS_P2;Temp;Humidity;BMP_temperature;BMP_pressure;BME280_temperature;BME280_humidity;BME280_pressure;Samples;Min_cycle;Max_cycle;Signal;HPM_P1;HPM_P2
2023/05/31 00:01:34;;;;;;;12.57;6.30;;;10.30;99.90;;;;;;5057441;28;20233;-65
2023/05/31 00:04:02;;;;;;;10.80;6.30;;;10.50;99.90;;;;;;5058069;28;20807;-64
2023/05/31 00:06:30;;;;;;;9.18;5.40;;;10.50;99.90;;;;;;5053727;28;20712;-64
2023/05/31 00:08:57;;;;;;;11.20;6.15;;;10.50;99.90;;;;;;5048533;28;20211;-64
2023/05/31 00:11:26;;;;;;;11.63;6.20;;;10.50;99.90;;;;;;5063757;28;20338;-64
2023/05/31 00:13:53;;;;;;;12.32;6.07;;;10.50;99.90;;;;;;5012251;28;20483;-64
2023/05/31 00:16:19;;;;;;;11.07;5.47;;;10.40;99.90;;;;;;5059732;28;20339;-64
2023/05/31 00:18:46;;;;;;;8.68;5.35;;;10.40;99.90;;;;;;5041194;28;20846;-65
2023/05/31 00:21:13;;;;;;;8.88;5.20;;;10.30;99.90;;;;;;5052412;28;20584;-64
2023/05/31 00:23:41;;;;;;;11.50;5.22;;;10.30;99.90;;;;;;5041721;28;20235;-64
2023/05/31 00:26:08;;;;;;;8.45;5.07;;;10.30;99.90;;;;;;5050446;28;20203;-65
2023/05/31 00:28:35;;;;;;;8.55;4.90;;;10.30;99.90;;;;;;5034812;28;20200;-65
2023/05/31 00:31:02;;;;;;;9.02;5.45;;;10.50;99.90;;;;;;5039196;28;20212;-65
2023/05/31 00:33:29;;;;;;;8.80;5.00;;;10.40;99.90;;;;;;5044564;28;20208;-64
2023/05/31 00:35:55;;;;;;;10.73;5.43;;;10.30;99.90;;;;;;5045567;28;20212;-65
2023/05/31 00:38:22;;;;;;;11.95;5.53;;;10.40;99.90;;;;;;5051524;28;20200;-64
2023/05/31 00:40:50;;;;;;;9.00;5.05;;;10.50;99.90;;;;;;5035214;28;20230;-65
2023/05/31 00:43:17;;;;;;;9.35;5.10;;;10.50;99.90;;;;;;5053820;28;20227;-64
2023/05/31 00:45:44;;;;;;;8.93;5.68;;;10.50;99.90;;;;;;5011492;28;20255;-64
2023/05/31 00:48:11;;;;;;;9.15;4.93;;;10.40;99.90;;;;;;5059929;28;20208;-64
2023/05/31 00:50:37;;;;;;;8.05;5.07;;;10.40;99.90;;;;;;5040274;28;20690;-64
2023/05/31 00:53:05;;;;;;;9.88;4.43;;;10.40;99.90;;;;;;5046611;28;20208;-64
2023/05/31 00:55:33;;;;;;;8.65;4.72;;;10.40;99.90;;;;;;5048903;28;20204;-64
2023/05/31 00:58:01;;;;;;;8.80;4.25;;;10.40;99.90;;;;;;5056261;28;21411;-64
2023/05/31 01:00:29;;;;;;;9.23;4.40;;;10.40;99.90;;;;;;5025224;28;20204;-65
2023/05/31 01:02:56;;;;;;;7.68;4.20;;;10.20;99.90;;;;;;5047557;28;20624;-64
2023/05/31 01:05:23;;;;;;;7.35;4.80;;;10.10;99.90;;;;;;5046658;28;20197;-64
2023/05/31 01:07:51;;;;;;;6.10;4.10;;;10.10;99.90;;;;;;5049344;28;20204;-64
2023/05/31 01:10:18;;;;;;;8.75;4.25;;;10.10;99.90;;;;;;5062681;28;20188;-64
2023/05/31 01:12:53;;;;;;;7.15;3.92;;;10.20;99.90;;;;;;5055802;28;20409;-65
2023/05/31 01:15:27;;;;;;;6.63;3.50;;;10.30;99.90;;;;;;5038192;28;20360;-65
2023/05/31 01:18:00;;;;;;;8.82;3.92;;;10.10;99.90;;;;;;5024549;28;20204;-64
2023/05/31 01:20:32;;;;;;;7.45;4.28;;;10.10;99.90;;;;;;5042558;28;20196;-64
2023/05/31 01:23:11;;;;;;;9.82;4.30;;;10.20;99.90;;;;;;5046285;28;20652;-64
2023/05/31 01:25:58;;;;;;;11.38;4.30;;;10.10;99.90;;;;;;5058503;28;20658;-65
2023/05/31 01:28:30;;;;;;;8.95;3.60;;;10.10;99.90;;;;;;5059692;28;20204;-64
2023/05/31 01:31:02;;;;;;;4.90;2.92;;;10.10;99.90;;;;;;5058944;28;20207;-64
2023/05/31 01:33:30;;;;;;;5.32;3.67;;;10.00;99.90;;;;;;5005587;28;20212;-65
2023/05/31 01:35:56;;;;;;;8.65;3.63;;;10.00;99.90;;;;;;5042256;28;20995;-64
2023/05/31 01:38:23;;;;;;;7.32;3.60;;;10.00;99.90;;;;;;5045639;28;20201;-64
2023/05/31 01:40:51;;;;;;;10.93;4.28;;;10.00;99.90;;;;;;5045462;28;20228;-65
2023/05/31 01:43:18;;;;;;;10.18;4.20;;;10.00;99.90;;;;;;5053830;28;20606;-64
2023/05/31 01:45:47;;;;;;;7.47;4.10;;;10.00;99.90;;;;;;5050845;28;20219;-65
2023/05/31 01:48:14;;;;;;;8.98;3.90;;;9.80;99.90;;;;;;5018760;28;20216;-64
2023/05/31 01:50:45;;;;;;;6.00;3.45;;;10.00;99.90;;;;;;5044233;28;20794;-64
2023/05/31 01:53:12;;;;;;;5.50;2.92;;;9.90;99.90;;;;;;5057209;28;20731;-64
2023/05/31 01:55:39;;;;;;;8.00;3.60;;;9.90;99.90;;;;;;5032572;28;20862;-64
2023/05/31 01:58:06;;;;;;;6.10;3.75;;;9.90;99.90;;;;;;5037031;28;20673;-64
2023/05/31 02:00:33;;;;;;;6.50;3.78;;;10.00;99.90;;;;;;5046127;28;20492;-64
2023/05/31 02:03:02;;;;;;;4.82;3.30;;;10.00;99.90;;;;;;5008622;28;20251;-65
2023/05/31 02:05:29;;;;;;;6.80;3.10;;;10.00;99.90;;;;;;5040244;28;20208;-64
2023/05/31 02:07:56;;;;;;;7.95;2.53;;;10.00;99.90;;;;;;5052936;28;21057;-64
2023/05/31 02:10:23;;;;;;;5.03;2.55;;;10.00;99.90;;;;;;5046462;28;20208;-64
2023/05/31 02:12:50;;;;;;;5.95;2.60;;;9.90;99.90;;;;;;5055657;28;20205;-64
2023/05/31 02:15:19;;;;;;;4.53;2.63;;;9.80;99.90;;;;;;5058446;28;20204;-64
2023/05/31 02:17:50;;;;;;;7.03;2.13;;;9.60;99.90;;;;;;5041233;28;20401;-65
2023/05/31 02:20:19;;;;;;;2.80;2.00;;;9.60;99.90;;;;;;5002476;28;20208;-65
2023/05/31 02:22:46;;;;;;;2.33;1.65;;;9.50;99.90;;;;;;5049345;28;20293;-64
2023/05/31 02:25:15;;;;;;;2.17;1.48;;;9.50;99.90;;;;;;5034413;28;20231;-65
2023/05/31 02:27:43;;;;;;;11.70;1.30;;;9.60;99.90;;;;;;5055164;28;20207;-64
2023/05/31 02:30:11;;;;;;;1.65;1.35;;;9.50;99.90;;;;;;5053672;28;20347;-64
2023/05/31 02:32:38;;;;;;;2.92;2.03;;;9.30;99.90;;;;;;5043051;28;20721;-65
2023/05/31 02:35:06;;;;;;;2.72;1.70;;;9.20;99.90;;;;;;5008659;28;21040;-64
2023/05/31 02:37:35;;;;;;;5.32;1.60;;;9.20;99.90;;;;;;5055250;28;20195;-64
2023/05/31 02:40:06;;;;;;;1.92;1.60;;;9.20;99.90;;;;;;5052357;28;20406;-65
2023/05/31 02:42:33;;;;;;;1.88;1.50;;;9.30;99.90;;;;;;5049752;28;20196;-64
2023/05/31 02:45:00;;;;;;;1.65;1.10;;;9.40;99.90;;;;;;5048639;28;20730;-63
2023/05/31 02:47:27;;;;;;;1.77;1.27;;;9.40;99.90;;;;;;5039433;28;20736;-64
2023/05/31 02:49:53;;;;;;;1.83;1.05;;;9.30;99.90;;;;;;5006881;28;20219;-65
2023/05/31 02:52:20;;;;;;;1.85;1.25;;;9.20;99.90;;;;;;5044263;28;20200;-64
2023/05/31 02:54:48;;;;;;;6.78;1.30;;;9.20;99.90;;;;;;5041068;28;20725;-64
2023/05/31 02:57:15;;;;;;;2.47;1.55;;;9.20;99.90;;;;;;5049190;28;20208;-64
2023/05/31 02:59:44;;;;;;;1.00;0.90;;;9.20;99.90;;;;;;5049062;28;20200;-64
2023/05/31 03:02:11;;;;;;;10.70;1.13;;;9.20;99.90;;;;;;5034736;28;20204;-64
2023/05/31 03:04:38;;;;;;;3.72;1.00;;;9.10;99.90;;;;;;5040155;28;20217;-65
2023/05/31 03:07:05;;;;;;;3.30;1.30;;;9.10;99.90;;;;;;5019537;28;20394;-64
2023/05/31 03:09:32;;;;;;;11.48;1.73;;;9.00;99.90;;;;;;5054327;28;20207;-64
2023/05/31 03:12:00;;;;;;;28.73;2.20;;;8.90;99.90;;;;;;5050590;28;20296;-64
2023/05/31 03:14:27;;;;;;;12.32;2.20;;;9.00;99.90;;;;;;5049465;28;20204;-64
2023/05/31 03:16:53;;;;;;;6.22;1.48;;;8.90;99.90;;;;;;5038145;28;20302;-64
2023/05/31 03:19:20;;;;;;;18.02;2.28;;;8.80;99.90;;;;;;5055676;28;20195;-64
2023/05/31 03:21:47;;;;;;;4.47;2.00;;;8.80;99.90;;;;;;5004270;28;20505;-64
2023/05/31 03:24:14;;;;;;;2.40;1.87;;;8.70;99.90;;;;;;5052512;28;20452;-65
2023/05/31 03:26:41;;;;;;;5.10;2.45;;;8.90;99.90;;;;;;5054796;28;20200;-64
2023/05/31 03:29:10;;;;;;;6.03;2.53;;;8.90;99.90;;;;;;5043438;28;20203;-64
2023/05/31 03:31:37;;;;;;;2.80;2.30;;;9.00;99.90;;;;;;5052260;28;20201;-64
2023/05/31 03:34:04;;;;;;;3.75;2.30;;;9.00;99.90;;;;;;5041158;28;20200;-64
2023/05/31 03:36:31;;;;;;;4.82;2.60;;;9.10;99.90;;;;;;5020869;28;20598;-64
2023/05/31 03:38:57;;;;;;;4.68;2.35;;;9.20;99.90;;;;;;5036253;28;20205;-65
2023/05/31 03:41:24;;;;;;;3.63;2.40;;;9.30;99.90;;;;;;5055724;28;20755;-64
2023/05/31 03:43:51;;;;;;;3.10;2.05;;;9.10;99.90;;;;;;5039509;28;20220;-64
2023/05/31 03:46:20;;;;;;;3.10;2.30;;;9.00;99.90;;;;;;5052940;28;20772;-64
2023/05/31 03:48:46;;;;;;;3.58;2.17;;;9.00;99.90;;;;;;5038111;28;20220;-64
2023/05/31 03:51:13;;;;;;;3.35;1.90;;;9.00;99.90;;;;;;5051230;28;20377;-64
2023/05/31 03:53:40;;;;;;;3.13;2.25;;;9.10;99.90;;;;;;5021053;28;21194;-64
2023/05/31 03:56:07;;;;;;;3.38;2.20;;;9.10;99.90;;;;;;5052621;28;20864;-64
2023/05/31 03:58:34;;;;;;;2.40;1.63;;;9.10;99.90;;;;;;5045959;28;20851;-64
2023/05/31 04:01:02;;;;;;;2.85;1.67;;;9.00;99.90;;;;;;5018271;28;20201;-65
2023/05/31 04:03:30;;;;;;;4.03;2.30;;;9.00;99.90;;;;;;5025256;28;21044;-65
2023/05/31 04:05:57;;;;;;;4.93;2.03;;;9.00;99.90;;;;;;5038434;28;21212;-64
2023/05/31 04:08:24;;;;;;;6.43;2.97;;;9.00;99.90;;;;;;5018057;28;20696;-64
2023/05/31 04:10:51;;;;;;;5.40;2.30;;;9.10;99.90;;;;;;5045277;28;20192;-64
2023/05/31 04:13:17;;;;;;;5.55;2.70;;;9.10;99.90;;;;;;5058355;28;20220;-64
2023/05/31 04:15:44;;;;;;;7.28;2.72;;;9.10;99.90;;;;;;5047254;28;20574;-64
2023/05/31 04:18:11;;;;;;;6.32;3.15;;;9.10;99.90;;;;;;5046984;28;20196;-64
2023/05/31 04:20:39;;;;;;;7.68;3.00;;;9.10;99.90;;;;;;5034152;28;20612;-64
2023/05/31 04:23:06;;;;;;;8.20;3.20;;;9.10;99.90;;;;;;5024648;28;20252;-64
2023/05/31 04:25:33;;;;;;;9.27;2.22;;;9.10;99.90;;;;;;5061195;28;20230;-64
2023/05/31 04:28:00;;;;;;;7.30;2.35;;;9.20;99.90;;;;;;5048538;28;20225;-64
2023/05/31 04:30:27;;;;;;;3.83;2.30;;;9.30;99.90;;;;;;5047593;28;20201;-64
2023/05/31 04:32:57;;;;;;;8.23;2.67;;;9.40;99.90;;;;;;5045174;28;20220;-64
2023/05/31 04:35:28;;;;;;;4.90;2.35;;;9.30;99.90;;;;;;5041112;28;20224;-64
2023/05/31 04:37:59;;;;;;;4.93;2.47;;;9.30;99.90;;;;;;5044054;28;20196;-64
2023/05/31 04:40:25;;;;;;;5.07;2.55;;;9.40;99.90;;;;;;5000640;28;20228;-64
2023/05/31 04:42:53;;;;;;;4.25;2.17;;;9.40;99.90;;;;;;5048378;28;20220;-65
2023/05/31 04:45:20;;;;;;;5.45;2.38;;;9.30;99.90;;;;;;5049610;28;20231;-65
2023/05/31 04:47:49;;;;;;;2.58;1.73;;;9.30;99.90;;;;;;5044076;28;20207;-64
2023/05/31 04:50:16;;;;;;;14.13;2.80;;;9.40;99.90;;;;;;5042555;28;20335;-64
2023/05/31 04:52:44;;;;;;;7.57;1.98;;;9.40;99.90;;;;;;5043143;28;20433;-65
2023/05/31 04:55:12;;;;;;;2.58;1.70;;;9.40;99.90;;;;;;5012209;28;20961;-65
2023/05/31 04:57:38;;;;;;;2.03;1.85;;;9.50;99.90;;;;;;5059360;28;20420;-64
2023/05/31 05:00:09;;;;;;;11.35;2.58;;;9.50;99.90;;;;;;5051780;28;20216;-64
2023/05/31 05:02:36;;;;;;;17.92;2.28;;;9.50;99.90;;;;;;5014319;28;20224;-63
2023/05/31 05:05:04;;;;;;;18.67;2.17;;;9.50;99.90;;;;;;5045189;28;20223;-64
2023/05/31 05:07:31;;;;;;;1.95;1.67;;;9.50;99.90;;;;;;5017425;28;21106;-64
2023/05/31 05:09:58;;;;;;;3.03;1.95;;;9.60;99.90;;;;;;5044571;28;20705;-65
2023/05/31 05:12:26;;;;;;;1.92;1.73;;;9.70;99.90;;;;;;5012922;28;20353;-65
2023/05/31 05:14:53;;;;;;;3.60;2.45;;;9.70;99.90;;;;;;5051223;28;20216;-65
2023/05/31 05:17:20;;;;;;;3.72;2.63;;;9.80;99.90;;;;;;5047310;28;20215;-64
2023/05/31 05:19:47;;;;;;;3.63;2.53;;;9.80;99.90;;;;;;5053122;28;20220;-64
2023/05/31 05:22:14;;;;;;;7.70;2.83;;;9.90;99.90;;;;;;5023160;28;20228;-64
2023/05/31 05:24:41;;;;;;;3.50;2.75;;;10.00;99.90;;;;;;5056595;28;21731;-65
2023/05/31 05:27:08;;;;;;;5.10;3.38;;;10.10;99.90;;;;;;5023086;28;20224;-64
2023/05/31 05:29:36;;;;;;;6.22;3.08;;;10.10;99.90;;;;;;5053602;28;21063;-65
2023/05/31 05:32:03;;;;;;;5.78;3.03;;;10.10;99.90;;;;;;5055247;28;20211;-65
2023/05/31 05:34:30;;;;;;;5.05;3.55;;;10.20;99.90;;;;;;5059912;28;20853;-64
2023/05/31 05:36:57;;;;;;;5.93;3.33;;;10.30;99.90;;;;;;5050551;28;20283;-65
2023/05/31 05:39:23;;;;;;;8.10;3.13;;;10.40;99.90;;;;;;5063809;28;20449;-65
2023/05/31 05:41:50;;;;;;;3.83;3.22;;;10.50;99.90;;;;;;5064859;28;20216;-65
2023/05/31 05:44:17;;;;;;;4.45;3.65;;;10.60;99.90;;;;;;5026868;28;20220;-65
2023/05/31 05:46:45;;;;;;;3.65;3.30;;;10.60;99.90;;;;;;5063344;28;20798;-64
2023/05/31 05:49:12;;;;;;;4.35;3.47;;;10.70;99.90;;;;;;5060752;28;20200;-65
2023/05/31 05:51:39;;;;;;;5.30;3.50;;;10.80;99.90;;;;;;5052590;28;20343;-65
2023/05/31 05:54:06;;;;;;;4.35;3.53;;;10.90;99.90;;;;;;5061413;28;20197;-65
2023/05/31 05:56:33;;;;;;;9.40;4.60;;;10.90;99.90;;;;;;5060007;28;20607;-65
2023/05/31 05:59:00;;;;;;;4.90;4.40;;;11.00;99.90;;;;;;5026814;28;20208;-65
2023/05/31 06:01:27;;;;;;;5.65;4.20;;;11.10;99.90;;;;;;5063656;28;20200;-65
2023/05/31 06:03:56;;;;;;;6.55;4.97;;;11.10;99.90;;;;;;5065168;28;20200;-65
2023/05/31 06:06:23;;;;;;;8.02;5.10;;;11.20;99.90;;;;;;5056923;28;20208;-65
2023/05/31 06:08:50;;;;;;;7.22;4.13;;;11.20;99.90;;;;;;5038491;28;21054;-65
2023/05/31 06:11:18;;;;;;;5.70;3.42;;;11.30;99.90;;;;;;5043587;28;20200;-65
2023/05/31 06:13:45;;;;;;;11.38;4.70;;;11.40;99.90;;;;;;5022489;28;20458;-65
2023/05/31 06:16:15;;;;;;;7.50;4.68;;;11.50;99.90;;;;;;5054921;28;20291;-65
2023/05/31 06:18:42;;;;;;;4.63;3.83;;;11.60;99.90;;;;;;5061153;28;20647;-65
2023/05/31 06:21:10;;;;;;;8.43;4.03;;;11.70;99.90;;;;;;5059404;28;20688;-65
2023/05/31 06:23:37;;;;;;;6.68;4.18;;;11.70;99.90;;;;;;5050594;28;20213;-65
2023/05/31 06:26:03;;;;;;;5.30;3.83;;;11.80;99.90;;;;;;5065548;28;20219;-65
2023/05/31 06:28:30;;;;;;;7.45;4.63;;;11.80;99.90;;;;;;5020301;28;20203;-65
2023/05/31 06:30:59;;;;;;;12.93;4.85;;;11.90;99.90;;;;;;5066027;28;20243;-65
2023/05/31 06:33:25;;;;;;;7.63;4.18;;;12.00;99.90;;;;;;5060482;28;20207;-65
2023/05/31 06:35:52;;;;;;;9.27;5.22;;;12.00;99.90;;;;;;5063786;28;20889;-65
2023/05/31 06:38:21;;;;;;;5.10;4.28;;;12.10;99.90;;;;;;5049219;28;20208;-65
2023/05/31 06:40:48;;;;;;;5.68;4.15;;;12.10;99.90;;;;;;5060031;28;20313;-65
2023/05/31 06:43:16;;;;;;;6.93;4.50;;;12.30;99.90;;;;;;5052419;28;20239;-65
2023/05/31 06:45:43;;;;;;;9.95;4.85;;;12.30;99.90;;;;;;5030424;28;20217;-65
2023/05/31 06:48:10;;;;;;;7.43;4.95;;;12.30;99.90;;;;;;5063509;28;20205;-65
2023/05/31 06:50:36;;;;;;;8.50;5.00;;;12.40;99.90;;;;;;5060880;28;20227;-65
2023/05/31 06:53:03;;;;;;;5.70;4.45;;;12.50;99.90;;;;;;5052980;28;20192;-65
2023/05/31 06:55:31;;;;;;;9.48;4.82;;;12.70;99.90;;;;;;5060908;28;20200;-65
2023/05/31 06:57:58;;;;;;;7.57;4.07;;;12.70;99.90;;;;;;5049454;28;20742;-65
2023/05/31 07:00:25;;;;;;;9.48;4.45;;;12.80;99.90;;;;;;5029485;28;20204;-65
2023/05/31 07:02:52;;;;;;;7.80;4.85;;;12.80;99.90;;;;;;5065606;28;20317;-65
2023/05/31 07:05:19;;;;;;;7.78;4.22;;;13.00;99.90;;;;;;5067231;28;20232;-65
2023/05/31 07:07:45;;;;;;;5.68;4.07;;;13.10;99.90;;;;;;5060701;28;20196;-65
2023/05/31 07:10:12;;;;;;;6.70;3.65;;;13.10;99.90;;;;;;5049337;28;20318;-65
2023/05/31 07:12:41;;;;;;;6.68;4.47;;;13.30;99.90;;;;;;5049857;28;20192;-65
2023/05/31 07:15:09;;;;;;;11.50;4.38;;;13.50;99.90;;;;;;5027893;28;20231;-65
2023/05/31 07:17:36;;;;;;;7.70;4.80;;;13.60;99.90;;;;;;5064311;28;20903;-65
2023/05/31 07:20:05;;;;;;;10.95;4.40;;;13.60;99.90;;;;;;5067543;28;20623;-65
2023/05/31 07:22:32;;;;;;;7.95;4.28;;;13.70;99.90;;;;;;5068724;28;20253;-65
2023/05/31 07:24:58;;;;;;;6.90;3.35;;;13.80;99.90;;;;;;5058647;28;20236;-65
2023/05/31 07:27:25;;;;;;;7.18;3.92;;;13.90;99.90;;;;;;5064564;28;20196;-65
2023/05/31 07:29:53;;;;;;;7.18;4.03;;;14.00;99.90;;;;;;5026046;28;21525;-66
2023/05/31 07:32:20;;;;;;;4.88;3.38;;;14.10;99.90;;;;;;5064109;28;20199;-65
2023/05/31 07:34:47;;;;;;;7.45;3.70;;;14.10;99.90;;;;;;5064333;28;20659;-65
2023/05/31 07:37:14;;;;;;;3.80;2.97;;;14.20;99.90;;;;;;5065192;28;20200;-65
2023/05/31 07:39:41;;;;;;;5.30;2.95;;;14.30;99.90;;;;;;5052997;28;20390;-65
2023/05/31 07:42:08;;;;;;;8.20;2.95;;;14.30;99.90;;;;;;5067362;28;20704;-65
2023/05/31 07:44:35;;;;;;;6.75;3.20;;;14.40;99.90;;;;;;5054927;28;20215;-65
2023/05/31 07:47:03;;;;;;;5.35;2.90;;;14.50;99.90;;;;;;5031885;28;20213;-65
2023/05/31 07:49:30;;;;;;;10.25;2.75;;;14.60;99.90;;;;;;5062508;28;20200;-65
2023/05/31 07:51:56;;;;;;;6.03;2.42;;;14.80;99.90;;;;;;5067403;28;20203;-65
2023/05/31 07:54:23;;;;;;;4.13;2.28;;;14.80;99.90;;;;;;5065026;28;20203;-65
2023/05/31 07:56:50;;;;;;;4.40;2.30;;;14.90;99.90;;;;;;5059902;28;20212;-65
2023/05/31 07:59:17;;;;;;;6.05;2.40;;;14.90;99.90;;;;;;5068212;28;20200;-65
2023/05/31 08:01:46;;;;;;;4.95;2.22;;;15.10;99.90;;;;;;5021312;27;20974;-66
2023/05/31 08:04:15;;;;;;;6.15;2.60;;;15.20;99.90;;;;;;5066215;28;20198;-65
2023/05/31 08:06:42;;;;;;;4.75;2.28;;;15.20;99.90;;;;;;5064480;28;20637;-65
2023/05/31 08:09:09;;;;;;;2.35;2.00;;;15.40;99.90;;;;;;5068141;28;20253;-67
2023/05/31 08:11:38;;;;;;;4.22;2.33;;;15.40;99.90;;;;;;5052120;28;20295;-65
2023/05/31 08:14:05;;;;;;;6.05;2.15;;;15.50;99.90;;;;;;5066223;28;20204;-65
2023/05/31 08:16:33;;;;;;;4.57;2.00;;;15.50;99.90;;;;;;5022799;28;20678;-66
2023/05/31 08:19:00;;;;;;;5.13;2.40;;;15.50;99.90;;;;;;5064602;28;20196;-65
2023/05/31 08:21:29;;;;;;;7.15;2.78;;;15.50;99.90;;;;;;5064410;28;20216;-66
2023/05/31 08:23:55;;;;;;;8.00;2.20;;;15.60;99.90;;;;;;5064819;28;20200;-65
2023/05/31 08:26:22;;;;;;;4.53;2.55;;;15.80;99.90;;;;;;5066578;28;20250;-65
2023/05/31 08:28:50;;;;;;;6.90;2.85;;;15.80;99.90;;;;;;5065028;28;20383;-65
2023/05/31 08:31:17;;;;;;;9.50;2.90;;;15.90;99.90;;;;;;5054334;28;20204;-65
2023/05/31 08:33:54;;;;;;;7.15;3.47;;;16.00;99.90;;;;;;5028317;28;20205;-65
2023/05/31 08:36:21;;;;;;;4.88;2.53;;;16.00;99.90;;;;;;5057156;28;20695;-65
2023/05/31 08:38:50;;;;;;;8.45;2.50;;;16.00;99.90;;;;;;5060459;28;20197;-66
2023/05/31 08:41:17;;;;;;;5.93;2.60;;;16.00;99.90;;;;;;5060055;28;20762;-65
2023/05/31 08:43:45;;;;;;;6.32;2.63;;;16.10;99.90;;;;;;5051164;28;20204;-65
2023/05/31 08:46:15;;;;;;;5.47;2.72;;;16.00;99.90;;;;;;5051460;28;20759;-65
2023/05/31 08:48:48;;;;;;;10.80;4.43;;;16.20;99.90;;;;;;5028828;28;20693;-66
2023/05/31 08:51:15;;;;;;;10.93;4.03;;;16.50;99.90;;;;;;5060887;28;20204;-65
2023/05/31 08:53:43;;;;;;;12.40;3.70;;;16.40;99.90;;;;;;5066474;28;20192;-65
2023/05/31 08:56:12;;;;;;;8.63;3.80;;;16.40;99.90;;;;;;5063117;28;20658;-65
2023/05/31 08:58:41;;;;;;;9.70;3.78;;;16.60;99.90;;;;;;5066378;28;20200;-65
2023/05/31 09:01:08;;;;;;;7.55;3.13;;;16.50;99.90;;;;;;5052645;28;20290;-65
2023/05/31 09:03:36;;;;;;;7.85;3.30;;;16.50;99.90;;;;;;5064977;28;20228;-65
2023/05/31 09:06:03;;;;;;;7.50;4.00;;;16.60;99.90;;;;;;5033033;28;20220;-65
2023/05/31 09:08:33;;;;;;;9.95;3.78;;;16.60;99.90;;;;;;5062448;28;20197;-65
2023/05/31 09:11:00;;;;;;;10.82;3.70;;;16.60;99.90;;;;;;5061796;28;20219;-66
2023/05/31 09:13:28;;;;;;;7.20;3.65;;;16.60;99.90;;;;;;5048268;28;20440;-65
2023/05/31 09:15:56;;;;;;;7.78;3.30;;;16.60;99.90;;;;;;5047705;28;21358;-65
2023/05/31 09:18:25;;;;;;;5.68;3.42;;;16.80;99.90;;;;;;5066059;28;20400;-65
2023/05/31 09:20:55;;;;;;;6.28;3.45;;;16.80;99.90;;;;;;5033425;28;20285;-65
2023/05/31 09:23:22;;;;;;;9.00;3.45;;;17.00;99.90;;;;;;5062460;28;20227;-65
2023/05/31 09:25:50;;;;;;;8.27;2.67;;;17.20;99.90;;;;;;5064951;28;20239;-66
2023/05/31 09:28:20;;;;;;;7.45;3.17;;;17.20;99.90;;;;;;5045433;28;20411;-66
2023/05/31 09:31:03;;;;;;;6.95;2.80;;;17.40;99.90;;;;;;5061836;28;20226;-66
2023/05/31 09:33:39;;;;;;;5.03;2.22;;;17.40;99.90;;;;;;5053914;28;20400;-65
2023/05/31 09:36:06;;;;;;;7.07;2.70;;;17.10;99.90;;;;;;5036909;28;20216;-66
2023/05/31 09:38:34;;;;;;;5.85;2.88;;;17.10;99.90;;;;;;5056561;28;20203;-65
2023/05/31 09:41:22;;;;;;;7.40;2.65;;;17.10;99.90;;;;;;5057543;28;20756;-65
2023/05/31 09:43:50;;;;;;;7.45;2.75;;;17.00;99.90;;;;;;5050484;28;20559;-65
2023/05/31 09:46:20;;;;;;;11.40;2.70;;;17.00;99.90;;;;;;5059436;28;20724;-66
2023/05/31 09:48:58;;;;;;;9.38;3.58;;;17.10;99.90;;;;;;5055143;28;20204;-65
2023/05/31 09:51:25;;;;;;;9.40;3.70;;;16.90;99.90;;;;;;5060368;28;20197;-65
2023/05/31 09:53:55;;;;;;;9.65;3.78;;;17.00;99.90;;;;;;5025870;28;20242;-65
2023/05/31 09:56:23;;;;;;;5.53;3.33;;;17.00;99.90;;;;;;5058172;28;20630;-66
2023/05/31 09:58:50;;;;;;;7.28;4.03;;;17.00;99.90;;;;;;5046746;28;20568;-65
2023/05/31 10:01:19;;;;;;;9.63;4.22;;;16.90;99.90;;;;;;5060759;28;21490;-66
2023/05/31 10:03:46;;;;;;;6.93;4.05;;;16.80;99.90;;;;;;5052715;28;20678;-65
2023/05/31 10:06:16;;;;;;;9.18;4.53;;;16.90;99.90;;;;;;5060569;28;20782;-66
2023/05/31 10:08:44;;;;;;;14.07;4.70;;;17.10;99.90;;;;;;5034236;28;20200;-65
2023/05/31 10:11:13;;;;;;;9.23;4.93;;;17.20;99.90;;;;;;5060876;28;20246;-66
2023/05/31 10:13:43;;;;;;;7.97;4.32;;;17.20;99.90;;;;;;5060178;28;20220;-65
2023/05/31 10:16:11;;;;;;;10.30;4.50;;;17.30;99.90;;;;;;5046403;28;21619;-65
2023/05/31 10:18:45;;;;;;;11.57;4.95;;;17.30;99.90;;;;;;5051093;28;20192;-66
2023/05/31 10:21:22;;;;;;;10.07;5.43;;;17.30;99.90;;;;;;5061815;28;20669;-66
2023/05/31 10:23:57;;;;;;;11.45;4.65;;;17.30;99.90;;;;;;5030603;28;20199;-66
2023/05/31 10:26:27;;;;;;;7.90;4.15;;;17.30;99.90;;;;;;5058388;28;20579;-66
2023/05/31 10:28:57;;;;;;;8.55;4.53;;;17.30;99.90;;;;;;5058903;28;20201;-65
2023/05/31 10:31:29;;;;;;;8.20;4.28;;;17.30;99.90;;;;;;5047121;28;20200;-65
2023/05/31 10:34:03;;;;;;;6.43;4.10;;;17.20;99.90;;;;;;5051042;28;20210;-65
2023/05/31 10:36:30;;;;;;;4.45;3.67;;;17.40;99.90;;;;;;5062528;28;20664;-65
2023/05/31 10:39:04;;;;;;;6.32;3.78;;;17.30;99.90;;;;;;5051640;28;20207;-66
2023/05/31 10:41:45;;;;;;;7.50;4.40;;;17.30;99.90;;;;;;5054612;28;20661;-65
2023/05/31 10:44:18;;;;;;;8.77;4.10;;;17.50;99.90;;;;;;5048672;28;20192;-66
2023/05/31 10:46:49;;;;;;;4.43;2.90;;;17.60;99.90;;;;;;5062725;28;21771;-65
2023/05/31 10:49:20;;;;;;;8.02;3.50;;;17.40;99.90;;;;;;5045018;28;20801;-66
2023/05/31 10:51:47;;;;;;;12.57;3.30;;;17.40;99.90;;;;;;5059295;28;20744;-66
2023/05/31 10:54:19;;;;;;;5.75;3.55;;;17.50;99.90;;;;;;5057851;28;20189;-66
2023/05/31 10:56:53;;;;;;;5.35;3.10;;;17.60;99.90;;;;;;5029552;28;20726;-65
2023/05/31 10:59:20;;;;;;;7.95;3.40;;;17.60;99.90;;;;;;5060405;28;20413;-66
2023/05/31 11:01:47;;;;;;;6.53;3.00;;;17.60;99.90;;;;;;5055655;28;20193;-65
2023/05/31 11:04:23;;;;;;;6.13;3.72;;;17.60;99.90;;;;;;5042689;28;20200;-66
2023/05/31 11:06:54;;;;;;;6.32;3.35;;;17.60;99.90;;;;;;5062463;28;20235;-66
2023/05/31 11:09:21;;;;;;;5.40;3.17;;;17.60;99.90;;;;;;5059122;28;20208;-66
2023/05/31 11:11:49;;;;;;;8.32;3.42;;;17.70;99.90;;;;;;5030521;28;20210;-66
2023/05/31 11:14:31;;;;;;;6.05;2.90;;;17.70;99.90;;;;;;5059265;28;20196;-66
2023/05/31 11:17:14;;;;;;;7.82;2.72;;;17.60;99.90;;;;;;5046047;28;20200;-65
2023/05/31 11:19:43;;;;;;;8.38;2.88;;;17.70;99.90;;;;;;5061314;28;20904;-65
2023/05/31 11:22:11;;;;;;;8.13;3.38;;;17.70;99.90;;;;;;5047577;28;20208;-66
2023/05/31 11:24:39;;;;;;;6.55;2.83;;;17.70;99.90;;;;;;5058382;28;20269;-65
2023/05/31 11:27:11;;;;;;;8.93;3.30;;;17.70;99.90;;;;;;5031364;28;20979;-65
2023/05/31 11:29:57;;;;;;;5.72;3.10;;;17.70;99.90;;;;;;5059757;28;20197;-65
2023/05/31 11:32:55;;;;;;;5.53;3.78;;;17.70;99.90;;;;;;5050522;28;20231;-65
2023/05/31 11:35:24;;;;;;;6.55;3.38;;;17.60;99.90;;;;;;5034780;28;20228;-66
2023/05/31 11:38:06;;;;;;;6.63;2.97;;;17.70;99.90;;;;;;5045072;28;20692;-66
2023/05/31 11:40:35;;;;;;;9.07;3.10;;;17.80;99.90;;;;;;5035057;28;20240;-66
2023/05/31 11:43:08;;;;;;;7.18;2.97;;;17.80;99.90;;;;;;5025660;28;20224;-66
2023/05/31 11:45:40;;;;;;;7.05;2.22;;;17.70;99.90;;;;;;5047540;28;20192;-66
2023/05/31 11:48:18;;;;;;;7.75;2.67;;;17.70;99.90;;;;;;5060215;28;20192;-66
2023/05/31 11:50:46;;;;;;;6.13;2.45;;;17.70;99.90;;;;;;5047179;28;20409;-66
2023/05/31 11:53:14;;;;;;;4.95;2.33;;;17.60;99.90;;;;;;5063781;28;20199;-66
2023/05/31 11:55:47;;;;;;;9.45;3.10;;;17.60;99.90;;;;;;5046395;28;20574;-66
2023/05/31 11:58:14;;;;;;;7.75;2.83;;;17.60;99.90;;;;;;5048056;28;20197;-65
2023/05/31 12:00:44;;;;;;;5.55;2.45;;;17.30;99.90;;;;;;5027622;28;20199;-66
2023/05/31 12:03:16;;;;;;;7.82;2.95;;;17.30;99.90;;;;;;5028345;28;20947;-65
2023/05/31 12:05:45;;;;;;;6.78;2.58;;;17.40;99.90;;;;;;5018029;28;20231;-66
2023/05/31 12:08:14;;;;;;;5.60;2.35;;;17.40;99.90;;;;;;5038657;28;20212;-66
2023/05/31 12:10:41;;;;;;;8.90;2.70;;;17.50;99.90;;;;;;5045181;28;20629;-66
2023/05/31 12:13:09;;;;;;;5.45;2.45;;;17.40;99.90;;;;;;5044120;28;20200;-65
2023/05/31 12:15:36;;;;;;;8.93;3.22;;;17.30;99.90;;;;;;5033612;28;20214;-65
2023/05/31 12:18:03;;;;;;;7.93;3.00;;;17.40;99.90;;;;;;5052122;28;20208;-66
2023/05/31 12:20:30;;;;;;;7.72;3.60;;;17.40;99.90;;;;;;5060106;28;20228;-66
2023/05/31 12:23:10;;;;;;;7.55;2.88;;;17.50;99.90;;;;;;5018512;28;20804;-66
2023/05/31 12:25:45;;;;;;;5.90;2.50;;;17.50;99.90;;;;;;5057262;28;20237;-66
2023/05/31 12:28:12;;;;;;;7.22;2.85;;;17.50;99.90;;;;;;5048807;28;20720;-66
2023/05/31 12:30:43;;;;;;;6.30;2.60;;;17.60;99.90;;;;;;5028102;28;20224;-66
2023/05/31 12:33:11;;;;;;;8.13;2.33;;;17.50;99.90;;;;;;5047946;28;20220;-66
2023/05/31 12:35:41;;;;;;;6.63;2.15;;;17.40;99.90;;;;;;5063420;28;20204;-66
2023/05/31 12:38:07;;;;;;;4.40;2.20;;;17.50;99.90;;;;;;5048670;28;20548;-66
2023/05/31 12:40:40;;;;;;;5.95;2.25;;;17.40;99.90;;;;;;5049153;28;20216;-66
2023/05/31 12:43:07;;;;;;;3.85;2.13;;;17.50;99.90;;;;;;5046689;28;20712;-66
2023/05/31 12:45:39;;;;;;;5.22;2.60;;;17.70;99.90;;;;;;5013671;28;20196;-65
2023/05/31 12:48:08;;;;;;;3.78;1.90;;;17.60;99.90;;;;;;5046376;28;21199;-66
2023/05/31 12:50:35;;;;;;;5.82;2.30;;;17.70;99.90;;;;;;5062961;28;20220;-65
2023/05/31 12:53:06;;;;;;;5.57;2.60;;;17.70;99.90;;;;;;5045839;28;20297;-66
2023/05/31 12:55:32;;;;;;;1.90;1.63;;;17.70;99.90;;;;;;5043595;28;20224;-66